createdAt,value
2022-12-23T00:01:35.971Z,20.21
2022-12-23T00:04:03.201Z,20.20
2022-12-23T00:06:30.354Z,20.21
2022-12-23T00:09:00.436Z,20.21
2022-12-23T00:11:28.762Z,20.22
2022-12-23T00:14:20.460Z,20.22
2022-12-23T00:16:49.029Z,20.21
2022-12-23T00:19:16.156Z,20.22
2022-12-23T00:21:43.159Z,20.22
2022-12-23T00:24:12.217Z,20.22
2022-12-23T00:26:39.308Z,20.22
2022-12-23T00:29:07.037Z,20.22
2022-12-23T00:31:34.056Z,20.21
2022-12-23T00:34:01.124Z,20.21
2022-12-23T00:36:30.416Z,20.21
2022-12-23T00:39:18.050Z,20.21
2022-12-23T00:42:03.620Z,20.21
2022-12-23T00:44:30.718Z,20.21
2022-12-23T00:46:57.733Z,20.21
2022-12-23T00:49:43.044Z,20.22
2022-12-23T00:52:15.859Z,20.22
2022-12-23T00:54:43.209Z,20.22
2022-12-23T00:57:10.405Z,20.21
2022-12-23T00:59:37.343Z,20.22
2022-12-23T01:02:23.104Z,20.22
2022-12-23T01:05:08.750Z,20.22
2022-12-23T01:07:35.721Z,20.23
2022-12-23T01:10:02.898Z,20.23
2022-12-23T01:12:29.880Z,20.23
2022-12-23T01:14:57.048Z,20.23
2022-12-23T01:17:25.243Z,20.23
2022-12-23T01:19:52.339Z,20.23
2022-12-23T01:22:19.264Z,20.23
2022-12-23T01:24:46.315Z,20.24
2022-12-23T01:27:13.298Z,20.24
2022-12-23T01:29:40.205Z,20.24
2022-12-23T01:32:07.789Z,20.24
2022-12-23T01:34:37.442Z,20.24
2022-12-23T01:37:05.424Z,20.24
2022-12-23T01:39:32.775Z,20.24
2022-12-23T01:42:18.484Z,20.24
2022-12-23T01:44:57.763Z,20.23
2022-12-23T01:47:28.061Z,20.23
2022-12-23T01:50:21.432Z,20.24
2022-12-23T01:53:00.387Z,20.23
2022-12-23T01:55:33.394Z,20.22
2022-12-23T01:58:14.045Z,20.23
2022-12-23T02:01:01.203Z,20.23
2022-12-23T02:03:44.192Z,20.23
2022-12-23T02:06:38.583Z,20.23
2022-12-23T02:09:17.258Z,20.23
2022-12-23T02:12:05.808Z,20.23
2022-12-23T02:15:23.150Z,20.22
2022-12-23T02:18:02.082Z,20.22
2022-12-23T02:20:56.938Z,20.23
2022-12-23T02:23:46.004Z,20.22
2022-12-23T02:26:28.330Z,20.21
2022-12-23T02:29:13.813Z,20.22
2022-12-23T02:31:58.455Z,20.22
2022-12-23T02:34:49.439Z,20.22
2022-12-23T02:37:32.385Z,20.22
2022-12-23T02:40:03.186Z,20.22
2022-12-23T02:42:38.203Z,20.23
2022-12-23T02:45:11.881Z,20.22
2022-12-23T02:47:45.471Z,20.23
2022-12-23T02:50:36.904Z,20.22
2022-12-23T02:53:39.592Z,20.23
2022-12-23T02:56:09.046Z,20.22
2022-12-23T02:58:44.550Z,20.22
2022-12-23T03:01:13.389Z,20.22
2022-12-23T03:03:41.910Z,20.22
2022-12-23T03:06:27.229Z,20.22
2022-12-23T03:08:57.477Z,20.22
2022-12-23T03:11:40.393Z,20.22
2022-12-23T03:14:27.779Z,20.22
2022-12-23T03:17:22.943Z,20.23
2022-12-23T03:20:24.319Z,20.23
2022-12-23T03:23:15.210Z,20.23
2022-12-23T03:26:07.545Z,20.23
2022-12-23T03:28:46.614Z,20.23
2022-12-23T03:31:22.094Z,20.23
2022-12-23T03:33:56.578Z,20.23
2022-12-23T03:36:27.825Z,20.24
2022-12-23T03:38:56.339Z,20.23
2022-12-23T03:41:36.178Z,20.23
2022-12-23T03:44:11.211Z,20.23
2022-12-23T03:46:43.126Z,20.24
2022-12-23T03:49:17.194Z,20.23
2022-12-23T03:51:59.846Z,20.23
2022-12-23T03:54:34.057Z,20.23
2022-12-23T03:57:05.015Z,20.23
2022-12-23T03:59:36.595Z,20.22
2022-12-23T04:02:20.797Z,20.22
2022-12-23T04:05:23.951Z,20.23
2022-12-23T04:08:02.580Z,20.22
2022-12-23T04:10:30.935Z,20.22
2022-12-23T04:12:58.342Z,20.22
2022-12-23T04:15:27.278Z,20.23
2022-12-23T04:17:57.050Z,20.23
2022-12-23T04:20:24.417Z,20.23
2022-12-23T04:22:51.435Z,20.23
2022-12-23T04:25:18.768Z,20.23
2022-12-23T04:27:45.817Z,20.23
2022-12-23T04:30:14.087Z,20.22
2022-12-23T04:32:42.157Z,20.22
2022-12-23T04:35:10.044Z,20.22
2022-12-23T04:37:37.395Z,20.22
2022-12-23T04:40:05.345Z,20.22
2022-12-23T04:42:32.352Z,20.22
2022-12-23T04:44:59.564Z,20.22
2022-12-23T04:47:27.352Z,20.22
2022-12-23T04:49:54.396Z,20.22
2022-12-23T04:52:21.422Z,20.21
2022-12-23T04:54:48.332Z,20.20
2022-12-23T04:57:16.234Z,20.21
2022-12-23T04:59:43.239Z,20.21
2022-12-23T05:02:10.490Z,20.21
2022-12-23T05:04:37.672Z,20.20
2022-12-23T05:07:04.589Z,20.20
2022-12-23T05:09:31.574Z,20.20
2022-12-23T05:11:58.670Z,20.19
2022-12-23T05:14:25.527Z,20.18
2022-12-23T05:16:52.880Z,20.17
2022-12-23T05:19:19.976Z,20.15
2022-12-23T05:21:47.005Z,20.13
2022-12-23T05:24:14.029Z,20.11
2022-12-23T05:26:42.862Z,20.11
2022-12-23T05:29:13.126Z,20.11
2022-12-23T05:31:40.091Z,20.12
2022-12-23T05:34:07.200Z,20.12
2022-12-23T05:36:34.291Z,20.13
2022-12-23T05:39:01.240Z,20.13
2022-12-23T05:41:28.218Z,20.14
2022-12-23T05:43:55.203Z,20.15
2022-12-23T05:46:26.431Z,20.15
2022-12-23T05:48:54.426Z,20.15
2022-12-23T05:51:21.337Z,20.15
2022-12-23T05:53:48.278Z,20.16
2022-12-23T05:56:15.238Z,20.17
2022-12-23T05:58:42.163Z,20.17
2022-12-23T06:01:09.094Z,20.18
2022-12-23T06:03:36.242Z,20.18
2022-12-23T06:06:03.375Z,20.18
2022-12-23T06:08:30.354Z,20.18
2022-12-23T06:10:57.412Z,20.18
2022-12-23T06:13:24.390Z,20.19
2022-12-23T06:15:51.323Z,20.19
2022-12-23T06:18:18.352Z,20.18
2022-12-23T06:20:48.878Z,20.17
2022-12-23T06:23:16.135Z,20.16
2022-12-23T06:25:43.218Z,20.15
2022-12-23T06:28:10.230Z,20.15
2022-12-23T06:30:37.268Z,20.15
2022-12-23T06:33:04.218Z,20.14
2022-12-23T06:35:31.487Z,20.13
2022-12-23T06:37:58.555Z,20.13
2022-12-23T06:40:25.568Z,20.12
2022-12-23T06:42:52.469Z,20.12
2022-12-23T06:45:19.456Z,20.12
2022-12-23T06:47:46.505Z,20.11
2022-12-23T06:50:13.508Z,20.12
2022-12-23T06:52:40.525Z,20.10
2022-12-23T06:55:07.852Z,20.10
2022-12-23T06:57:34.904Z,20.11
2022-12-23T07:00:02.055Z,20.10
2022-12-23T07:02:29.277Z,20.10
2022-12-23T07:04:56.369Z,20.10
2022-12-23T07:07:23.316Z,20.10
2022-12-23T07:09:50.378Z,20.10
2022-12-23T07:12:17.389Z,20.11
2022-12-23T07:14:44.374Z,20.11
2022-12-23T07:17:11.776Z,20.11
2022-12-23T07:19:38.916Z,20.10
2022-12-23T07:22:05.835Z,20.08
2022-12-23T07:24:32.773Z,20.08
2022-12-23T07:26:59.762Z,20.09
2022-12-23T07:29:26.789Z,20.10
2022-12-23T07:31:53.786Z,20.11
2022-12-23T07:34:20.868Z,20.12
2022-12-23T07:36:48.026Z,20.13
2022-12-23T07:39:15.058Z,20.13
2022-12-23T07:41:41.980Z,20.14
2022-12-23T07:44:09.093Z,20.15
2022-12-23T07:46:36.202Z,20.16
2022-12-23T07:49:03.174Z,20.16
2022-12-23T07:51:30.487Z,20.17
2022-12-23T07:53:57.827Z,20.17
2022-12-23T07:56:24.964Z,20.17
2022-12-23T07:58:53.386Z,20.17
2022-12-23T08:01:21.053Z,20.18
2022-12-23T08:03:48.650Z,20.18
2022-12-23T08:06:16.876Z,20.17
2022-12-23T08:08:46.452Z,20.17
2022-12-23T08:11:15.602Z,20.18
2022-12-23T08:13:44.931Z,20.18
2022-12-23T08:16:12.581Z,20.19
2022-12-23T08:18:41.414Z,20.19
2022-12-23T08:21:16.070Z,20.20
2022-12-23T08:23:43.856Z,20.20
2022-12-23T08:26:14.050Z,20.20
2022-12-23T08:28:42.293Z,20.22
2022-12-23T08:31:21.582Z,20.23
2022-12-23T08:33:51.054Z,20.23
2022-12-23T08:36:23.363Z,20.22
2022-12-23T08:38:53.084Z,20.22
2022-12-23T08:41:26.699Z,20.22
2022-12-23T08:43:54.016Z,20.22
2022-12-23T08:46:21.351Z,20.23
2022-12-23T08:48:49.814Z,20.22
2022-12-23T08:51:18.773Z,20.23
2022-12-23T08:53:46.127Z,20.22
2022-12-23T08:56:21.501Z,20.22
2022-12-23T08:58:50.601Z,20.20
2022-12-23T09:01:19.192Z,20.21
2022-12-23T09:03:46.810Z,20.21
2022-12-23T09:06:26.500Z,20.22
2022-12-23T09:08:56.243Z,20.22
2022-12-23T09:11:25.663Z,20.23
2022-12-23T09:13:53.836Z,20.24
2022-12-23T09:16:21.693Z,20.24
2022-12-23T09:18:48.754Z,20.24
2022-12-23T09:21:18.898Z,20.25
2022-12-23T09:23:46.318Z,20.25
2022-12-23T09:26:22.997Z,20.25
2022-12-23T09:28:49.948Z,20.26
2022-12-23T09:31:18.667Z,20.25
2022-12-23T09:33:50.805Z,20.26
2022-12-23T09:36:18.036Z,20.26
2022-12-23T09:38:45.218Z,20.26
2022-12-23T09:41:21.372Z,20.27
2022-12-23T09:44:05.638Z,20.27
2022-12-23T09:46:36.312Z,20.27
2022-12-23T09:49:18.294Z,20.27
2022-12-23T09:51:47.248Z,20.27
2022-12-23T09:54:29.227Z,20.27
2022-12-23T09:57:04.987Z,20.27
2022-12-23T09:59:56.839Z,20.27
2022-12-23T10:02:45.441Z,20.27
2022-12-23T10:05:29.892Z,20.26
2022-12-23T10:08:04.500Z,20.26
2022-12-23T10:11:13.071Z,20.27
2022-12-23T10:13:44.180Z,20.26
2022-12-23T10:16:19.021Z,20.27
2022-12-23T10:19:07.631Z,20.27
2022-12-23T10:21:48.276Z,20.27
2022-12-23T10:24:28.228Z,20.27
2022-12-23T10:27:06.847Z,20.30
2022-12-23T10:29:34.638Z,20.30
2022-12-23T10:32:20.505Z,20.29
2022-12-23T10:35:00.503Z,20.29
2022-12-23T10:37:35.866Z,20.29
2022-12-23T10:40:09.566Z,20.29
2022-12-23T10:42:46.536Z,20.30
2022-12-23T10:45:46.005Z,20.30
2022-12-23T10:48:23.279Z,20.30
2022-12-23T10:50:58.216Z,20.30
2022-12-23T10:53:48.265Z,20.30
2022-12-23T10:56:15.552Z,20.31
2022-12-23T10:58:45.872Z,20.32
2022-12-23T11:01:25.722Z,20.32
2022-12-23T11:04:18.130Z,20.32
2022-12-23T11:06:52.868Z,20.32
2022-12-23T11:09:37.448Z,20.32
2022-12-23T11:12:07.318Z,20.32
2022-12-23T11:14:49.987Z,20.31
2022-12-23T11:17:22.339Z,20.32
2022-12-23T11:20:08.468Z,20.32
2022-12-23T11:22:35.560Z,20.32
2022-12-23T11:25:27.954Z,20.31
2022-12-23T11:28:00.157Z,20.31
2022-12-23T11:30:28.403Z,20.32
2022-12-23T11:32:56.471Z,20.33
2022-12-23T11:35:26.596Z,20.33
2022-12-23T11:37:53.782Z,20.34
2022-12-23T11:40:36.041Z,20.35
2022-12-23T11:43:07.602Z,20.34
2022-12-23T11:45:36.791Z,20.34
2022-12-23T11:48:06.032Z,20.35
2022-12-23T11:50:34.822Z,20.34
2022-12-23T11:53:11.383Z,20.34
2022-12-23T11:55:45.790Z,20.34
2022-12-23T11:58:20.235Z,20.34
2022-12-23T12:01:20.986Z,20.34
2022-12-23T12:03:55.076Z,20.34
2022-12-23T12:06:23.028Z,20.35
2022-12-23T12:08:52.027Z,20.35
2022-12-23T12:11:32.786Z,20.35
2022-12-23T12:14:03.336Z,20.36
2022-12-23T12:16:53.112Z,20.36
2022-12-23T12:19:28.452Z,20.34
2022-12-23T12:22:02.697Z,20.34
2022-12-23T12:24:34.743Z,20.34
2022-12-23T12:27:05.145Z,20.33
2022-12-23T12:29:51.576Z,20.33
2022-12-23T12:32:49.028Z,20.32
2022-12-23T12:35:36.011Z,20.33
2022-12-23T12:38:13.533Z,20.33
2022-12-23T12:40:50.024Z,20.32
2022-12-23T12:43:17.052Z,20.32
2022-12-23T12:46:25.166Z,20.32
2022-12-23T12:49:14.769Z,20.32
2022-12-23T12:51:56.853Z,20.33
2022-12-23T12:54:30.391Z,20.33
2022-12-23T12:56:59.248Z,20.34
2022-12-23T12:59:33.127Z,20.34
2022-12-23T13:02:15.326Z,20.35
2022-12-23T13:04:48.265Z,20.35
2022-12-23T13:07:15.337Z,20.36
2022-12-23T13:10:16.242Z,20.36
2022-12-23T13:13:01.724Z,20.36
2022-12-23T13:15:46.310Z,20.37
2022-12-23T13:18:22.210Z,20.37
2022-12-23T13:21:18.410Z,20.37
2022-12-23T13:23:58.046Z,20.38
2022-12-23T13:27:07.951Z,20.38
2022-12-23T13:30:00.493Z,20.37
2022-12-23T13:32:50.085Z,20.37
2022-12-23T13:35:35.640Z,20.38
2022-12-23T13:38:30.797Z,20.39
2022-12-23T13:41:27.647Z,20.38
2022-12-23T13:43:56.439Z,20.39
2022-12-23T13:46:46.525Z,20.40
2022-12-23T13:49:30.309Z,20.40
2022-12-23T13:52:26.659Z,20.41
2022-12-23T13:55:12.582Z,20.40
2022-12-23T13:57:39.991Z,20.40
2022-12-23T14:00:19.435Z,20.40
2022-12-23T14:03:03.029Z,20.41
2022-12-23T14:05:37.747Z,20.41
2022-12-23T14:08:20.366Z,20.41
2022-12-23T14:11:11.735Z,20.41
2022-12-23T14:13:43.748Z,20.41
2022-12-23T14:16:28.972Z,20.42
2022-12-23T14:19:19.269Z,20.42
2022-12-23T14:22:07.950Z,20.41
2022-12-23T14:24:53.013Z,20.42
2022-12-23T14:27:54.451Z,20.42
2022-12-23T14:30:37.851Z,20.42
2022-12-23T14:33:29.080Z,20.42
2022-12-23T14:35:56.090Z,20.42
2022-12-23T14:38:29.358Z,20.42
2022-12-23T14:41:24.993Z,20.41
2022-12-23T14:43:56.271Z,20.41
2022-12-23T14:46:35.606Z,20.41
2022-12-23T14:49:38.142Z,20.40
2022-12-23T14:51:52.826Z,20.40
2022-12-23T14:54:38.685Z,20.40
2022-12-23T14:57:16.032Z,20.40
2022-12-23T15:00:12.978Z,20.40
2022-12-23T15:02:41.527Z,20.40
2022-12-23T15:05:09.093Z,20.39
2022-12-23T15:07:39.065Z,20.39
2022-12-23T15:10:09.474Z,20.39
2022-12-23T15:12:40.223Z,20.39
2022-12-23T15:15:22.473Z,20.39
2022-12-23T15:17:49.722Z,20.39
2022-12-23T15:20:23.471Z,20.38
2022-12-23T15:22:51.212Z,20.38
2022-12-23T15:25:36.248Z,20.37
2022-12-23T15:28:04.317Z,20.36
2022-12-23T15:30:36.946Z,20.37
2022-12-23T15:33:27.777Z,20.36
2022-12-23T15:35:54.390Z,20.36
2022-12-23T15:38:23.417Z,20.36
2022-12-23T15:41:01.479Z,20.35
2022-12-23T15:43:28.545Z,20.35
2022-12-23T15:46:04.482Z,20.36
2022-12-23T15:48:33.383Z,20.36
2022-12-23T15:51:08.673Z,20.35
2022-12-23T15:53:39.064Z,20.34
2022-12-23T15:56:19.207Z,20.34
2022-12-23T15:58:46.397Z,20.34
2022-12-23T16:01:18.116Z,20.34
2022-12-23T16:03:52.364Z,20.34
2022-12-23T16:06:24.523Z,20.34
2022-12-23T16:09:22.166Z,20.33
2022-12-23T16:11:57.471Z,20.33
2022-12-23T16:14:27.975Z,20.32
2022-12-23T16:17:07.780Z,20.32
2022-12-23T16:19:45.437Z,20.32
2022-12-23T16:22:34.577Z,20.32
2022-12-23T16:25:08.338Z,20.32
2022-12-23T16:27:48.622Z,20.31
2022-12-23T16:30:21.722Z,20.32
2022-12-23T16:32:50.567Z,20.32
2022-12-23T16:35:39.415Z,20.33
2022-12-23T16:38:15.144Z,20.32
2022-12-23T16:40:43.798Z,20.32
2022-12-23T16:43:10.965Z,20.32
2022-12-23T16:45:38.636Z,20.33
2022-12-23T16:48:24.401Z,20.33
2022-12-23T16:50:52.249Z,20.33
2022-12-23T16:53:19.944Z,20.34
2022-12-23T16:55:53.853Z,20.33
2022-12-23T16:58:23.804Z,20.33
2022-12-23T17:00:51.969Z,20.33
2022-12-23T17:03:20.467Z,20.33
2022-12-23T17:05:48.519Z,20.33
2022-12-23T17:08:15.598Z,20.33
2022-12-23T17:10:45.076Z,20.33
2022-12-23T17:13:14.621Z,20.33
2022-12-23T17:15:41.614Z,20.34
2022-12-23T17:18:18.811Z,20.34
2022-12-23T17:20:47.783Z,20.35
2022-12-23T17:23:26.049Z,20.34
2022-12-23T17:25:53.051Z,20.34
2022-12-23T17:28:20.035Z,20.34
2022-12-23T17:30:47.275Z,20.34
2022-12-23T17:33:18.923Z,20.34
2022-12-23T17:35:45.964Z,20.33
2022-12-23T17:38:14.713Z,20.32
2022-12-23T17:40:42.176Z,20.30
2022-12-23T17:43:14.713Z,20.30
2022-12-23T17:45:42.635Z,20.31
2022-12-23T17:48:20.612Z,20.32
2022-12-23T17:50:49.423Z,20.33
2022-12-23T17:53:19.833Z,20.34
2022-12-23T17:55:46.779Z,20.35
2022-12-23T17:58:14.480Z,20.37
2022-12-23T18:00:41.708Z,20.38
2022-12-23T18:03:22.362Z,20.39
2022-12-23T18:05:51.911Z,20.40
2022-12-23T18:08:21.572Z,20.42
2022-12-23T18:10:48.783Z,20.43
2022-12-23T18:13:19.868Z,20.43
2022-12-23T18:15:48.090Z,20.43
2022-12-23T18:18:31.289Z,20.42
2022-12-23T18:21:06.158Z,20.42
2022-12-23T18:23:35.063Z,20.43
2022-12-23T18:26:02.186Z,20.45
2022-12-23T18:28:29.115Z,20.45
2022-12-23T18:30:57.149Z,20.46
2022-12-23T18:33:28.887Z,20.48
2022-12-23T18:35:56.210Z,20.49
2022-12-23T18:38:23.205Z,20.50
2022-12-23T18:40:54.030Z,20.52
2022-12-23T18:43:23.553Z,20.53
2022-12-23T18:45:53.520Z,20.54
2022-12-23T18:48:21.684Z,20.55
2022-12-23T18:50:48.840Z,20.56
2022-12-23T18:53:24.562Z,20.56
2022-12-23T18:55:53.017Z,20.56
2022-12-23T18:58:22.156Z,20.55
2022-12-23T19:00:51.383Z,20.55
2022-12-23T19:03:31.039Z,20.55
2022-12-23T19:06:06.704Z,20.55
2022-12-23T19:08:36.119Z,20.54
2022-12-23T19:11:13.125Z,20.54
2022-12-23T19:13:40.524Z,20.54
2022-12-23T19:16:07.734Z,20.53
2022-12-23T19:18:35.448Z,20.52
2022-12-23T19:21:05.757Z,20.52
2022-12-23T19:23:33.492Z,20.52
2022-12-23T19:26:00.626Z,20.52
2022-12-23T19:28:28.007Z,20.52
2022-12-23T19:30:55.199Z,20.53
2022-12-23T19:33:22.265Z,20.53
2022-12-23T19:35:49.489Z,20.53
2022-12-23T19:38:16.744Z,20.53
2022-12-23T19:40:43.894Z,20.54
2022-12-23T19:43:10.895Z,20.54
2022-12-23T19:45:38.112Z,20.54
2022-12-23T19:48:05.534Z,20.53
2022-12-23T19:50:32.751Z,20.54
2022-12-23T19:52:59.786Z,20.54
2022-12-23T19:55:26.833Z,20.54
2022-12-23T19:57:53.916Z,20.54
2022-12-23T20:00:20.968Z,20.55
2022-12-23T20:02:51.343Z,20.55
2022-12-23T20:05:22.172Z,20.55
2022-12-23T20:07:49.140Z,20.54
2022-12-23T20:10:16.133Z,20.54
2022-12-23T20:12:43.118Z,20.54
2022-12-23T20:15:11.147Z,20.54
2022-12-23T20:17:38.215Z,20.55
2022-12-23T20:20:07.084Z,20.55
2022-12-23T20:22:34.005Z,20.54
2022-12-23T20:25:01.077Z,20.54
2022-12-23T20:27:29.083Z,20.53
2022-12-23T20:29:56.067Z,20.53
2022-12-23T20:32:23.080Z,20.54
2022-12-23T20:34:50.411Z,20.55
2022-12-23T20:37:17.746Z,20.54
2022-12-23T20:39:44.692Z,20.52
2022-12-23T20:42:11.670Z,20.51
2022-12-23T20:44:38.890Z,20.50
2022-12-23T20:47:06.596Z,20.49
2022-12-23T20:49:34.553Z,20.48
2022-12-23T20:52:02.837Z,20.46
2022-12-23T20:54:33.656Z,20.45
2022-12-23T20:57:02.347Z,20.44
2022-12-23T20:59:29.475Z,20.43
2022-12-23T21:01:56.823Z,20.41
2022-12-23T21:04:23.840Z,20.40
2022-12-23T21:06:50.960Z,20.38
2022-12-23T21:09:18.307Z,20.37
2022-12-23T21:11:47.502Z,20.36
2022-12-23T21:14:15.465Z,20.35
2022-12-23T21:16:44.311Z,20.33
2022-12-23T21:19:17.685Z,20.33
2022-12-23T21:21:45.780Z,20.31
2022-12-23T21:24:13.103Z,20.30
2022-12-23T21:26:40.477Z,20.28
2022-12-23T21:29:09.214Z,20.26
2022-12-23T21:31:39.482Z,20.24
2022-12-23T21:34:07.922Z,20.22
2022-12-23T21:36:38.892Z,20.21
2022-12-23T21:39:07.389Z,20.20
2022-12-23T21:41:37.956Z,20.19
2022-12-23T21:44:05.681Z,20.18
2022-12-23T21:46:33.009Z,20.17
2022-12-23T21:49:01.575Z,20.17
2022-12-23T21:51:38.995Z,20.16
2022-12-23T21:54:07.982Z,20.16
2022-12-23T21:56:35.665Z,20.15
2022-12-23T21:59:05.754Z,20.16
2022-12-23T22:01:33.421Z,20.16
2022-12-23T22:04:04.316Z,20.16
2022-12-23T22:06:37.468Z,20.14
2022-12-23T22:09:13.237Z,20.12
2022-12-23T22:11:40.412Z,20.14
2022-12-23T22:14:08.939Z,20.15
2022-12-23T22:16:36.438Z,20.17
2022-12-23T22:19:05.109Z,20.19
2022-12-23T22:21:33.676Z,20.20
2022-12-23T22:24:00.936Z,20.22
2022-12-23T22:26:30.941Z,20.23
2022-12-23T22:29:01.137Z,20.25
2022-12-23T22:31:40.169Z,20.26
2022-12-23T22:34:10.672Z,20.28
2022-12-23T22:36:37.588Z,20.29
2022-12-23T22:39:07.820Z,20.30
2022-12-23T22:41:35.549Z,20.32
2022-12-23T22:44:02.630Z,20.33
2022-12-23T22:46:30.279Z,20.33
2022-12-23T22:48:58.912Z,20.34
2022-12-23T22:51:28.893Z,20.35
2022-12-23T22:53:56.155Z,20.35
2022-12-23T22:56:24.478Z,20.37
2022-12-23T22:58:52.337Z,20.38
2022-12-23T23:01:21.510Z,20.38
2022-12-23T23:03:51.379Z,20.39
2022-12-23T23:06:19.119Z,20.40
2022-12-23T23:08:47.207Z,20.41
2022-12-23T23:11:14.180Z,20.40
2022-12-23T23:13:41.156Z,20.41
2022-12-23T23:16:08.365Z,20.42
2022-12-23T23:18:35.504Z,20.42
2022-12-23T23:21:02.439Z,20.42
2022-12-23T23:23:29.401Z,20.43
2022-12-23T23:25:56.457Z,20.43
2022-12-23T23:28:23.381Z,20.44
2022-12-23T23:31:03.617Z,20.44
2022-12-23T23:33:37.528Z,20.44
2022-12-23T23:36:05.610Z,20.44
2022-12-23T23:38:32.659Z,20.44
2022-12-23T23:40:59.851Z,20.44
2022-12-23T23:43:27.019Z,20.44
2022-12-23T23:45:55.472Z,20.44
2022-12-23T23:48:22.565Z,20.45
2022-12-23T23:50:49.582Z,20.45
2022-12-23T23:53:17.078Z,20.45
2022-12-23T23:55:44.166Z,20.45
2022-12-23T23:58:12.163Z,20.45
